Time;durP1;ratioP1;P1;durP2;ratioP2;P2;SDS_P1;SDS_P2;PMS_P1;PMS_P2;Temp;Humidity;BMP_temperature;BMP_pressure;BME280_temperature;BME280_humidity;BME280_pressure;Samples;Min_cycle;Max_cycle;Signal;HPM_P1;HPM_P2
2023/07/04 00:07:07;;;;;;;10.60;2.35;;;;;;;13.57;85.97;101059.47;5022416;28;20114;-61
2023/07/04 00:09:33;;;;;;;7.97;2.28;;;;;;;13.58;85.65;101079.00;5027930;28;20026;-60
2023/07/04 00:42:12;;;;;;;11.15;3.40;;;;;;;13.25;85.71;101028.66;5014249;28;20507;-61
2023/07/04 00:44:44;;;;;;;11.48;2.85;;;;;;;13.23;85.88;101033.34;5020742;28;20017;-61
2023/07/04 00:47:15;;;;;;;16.38;3.22;;;;;;;13.21;86.32;101034.56;5028424;28;20021;-61
2023/07/04 00:49:48;;;;;;;12.07;3.42;;;;;;;13.23;86.28;101033.34;5024494;28;20116;-61
2023/07/04 00:52:24;;;;;;;10.63;3.10;;;;;;;13.20;86.50;101031.06;5025060;28;20025;-61
2023/07/04 00:54:53;;;;;;;14.13;3.90;;;;;;;13.22;86.92;101031.69;5029850;28;20105;-61
2023/07/04 00:57:31;;;;;;;16.65;3.78;;;;;;;13.20;86.69;101033.72;5020958;28;20013;-61
2023/07/04 01:00:00;;;;;;;24.00;4.18;;;;;;;13.20;87.05;101030.22;5026727;28;20487;-61
2023/07/04 01:02:31;;;;;;;11.65;3.72;;;;;;;13.20;87.06;101032.91;5023547;28;20030;-61
2023/07/04 01:04:58;;;;;;;17.40;4.13;;;;;;;13.19;87.53;101037.41;5021986;28;20028;-61
2023/07/04 01:07:43;;;;;;;15.57;4.57;;;;;;;13.19;87.74;101039.25;5017104;28;20079;-62
2023/07/04 01:10:11;;;;;;;16.55;4.43;;;;;;;13.21;87.75;101039.88;5022165;28;20079;-61
2023/07/04 01:12:38;;;;;;;21.85;4.95;;;;;;;13.22;88.16;101031.69;5012626;28;20518;-62
2023/07/04 01:15:03;;;;;;;18.67;4.75;;;;;;;13.28;88.38;101036.28;5021342;28;20029;-61
2023/07/04 01:17:30;;;;;;;17.83;4.55;;;;;;;13.29;88.26;101040.63;5024733;28;20026;-61
2023/07/04 01:19:56;;;;;;;14.02;4.63;;;;;;;13.33;88.42;101038.44;5026675;28;20033;-61
2023/07/04 01:22:40;;;;;;;22.20;4.45;;;;;;;13.37;88.37;101044.22;5027819;28;20052;-61
2023/07/04 01:25:20;;;;;;;20.15;4.85;;;;;;;13.41;88.64;101034.84;5020553;28;20037;-61
2023/07/04 01:27:48;;;;;;;24.88;4.90;;;;;;;13.43;88.53;101041.66;5024288;28;20080;-61
2023/07/04 01:30:15;;;;;;;24.05;5.32;;;;;;;13.45;88.92;101041.47;5025899;28;20021;-61
2023/07/04 01:32:42;;;;;;;23.33;5.40;;;;;;;13.43;88.44;101041.66;5024068;28;20021;-61
2023/07/04 01:35:08;;;;;;;22.52;5.43;;;;;;;13.45;88.70;101036.97;5023495;28;20036;-61
2023/07/04 01:37:33;;;;;;;23.38;5.50;;;;;;;13.47;88.83;101034.94;5027808;28;20029;-61
2023/07/04 01:40:00;;;;;;;26.45;5.70;;;;;;;13.47;89.00;101042.09;5020900;28;20472;-60
2023/07/04 01:42:31;;;;;;;21.13;6.50;;;;;;;13.52;89.40;101047.72;5023922;28;20124;-61
2023/07/04 01:45:04;;;;;;;28.95;5.60;;;;;;;13.55;89.21;101042.84;5024450;28;20033;-61
2023/07/04 01:47:31;;;;;;;27.13;5.53;;;;;;;13.58;88.95;101050.47;5030345;28;20529;-62
2023/07/04 01:49:56;;;;;;;26.42;6.22;;;;;;;13.58;89.00;101041.63;5017555;28;20018;-61
2023/07/04 01:52:22;;;;;;;26.42;6.25;;;;;;;13.58;89.16;101044.31;5027068;28;20035;-62
2023/07/04 01:54:48;;;;;;;24.98;5.70;;;;;;;13.60;89.31;101045.81;5021053;28;20061;-61
2023/07/04 01:57:14;;;;;;;27.45;5.88;;;;;;;13.64;89.33;101038.25;5022400;28;20032;-61
2023/07/04 01:59:39;;;;;;;27.35;6.07;;;;;;;13.74;89.69;101045.94;5020971;28;20079;-61
2023/07/04 02:02:05;;;;;;;17.92;5.80;;;;;;;13.83;89.36;101045.66;5028043;28;20493;-61
2023/07/04 02:04:30;;;;;;;20.65;5.38;;;;;;;13.91;88.92;101037.56;5028640;28;20034;-61
2023/07/04 02:06:55;;;;;;;22.13;5.40;;;;;;;13.97;87.31;101024.47;5027212;28;20497;-62
2023/07/04 02:09:21;;;;;;;16.80;4.75;;;;;;;14.03;86.39;101037.88;5022634;28;20035;-62
2023/07/04 02:11:46;;;;;;;22.02;4.70;;;;;;;14.04;84.90;101028.03;5028060;28;20023;-62
2023/07/04 02:14:13;;;;;;;17.20;5.00;;;;;;;14.02;84.39;101028.22;5020576;28;20117;-61
2023/07/04 02:16:38;;;;;;;17.13;4.38;;;;;;;14.02;84.64;101033.56;5019608;28;20036;-61
2023/07/04 02:19:03;;;;;;;19.02;4.78;;;;;;;14.04;84.31;101052.06;5026279;28;20379;-61
2023/07/04 02:21:29;;;;;;;15.65;3.75;;;;;;;14.04;84.25;101057.41;5026285;28;20088;-62
2023/07/04 02:23:54;;;;;;;14.20;3.95;;;;;;;14.06;83.31;101045.53;5020842;28;20060;-61
2023/07/04 02:26:19;;;;;;;18.55;4.20;;;;;;;14.12;82.77;101051.94;5026281;28;20029;-61
2023/07/04 02:28:45;;;;;;;16.52;4.43;;;;;;;14.13;82.78;101053.59;5028344;28;20520;-61
2023/07/04 02:31:10;;;;;;;14.35;4.68;;;;;;;14.10;82.61;101051.31;5026754;28;20087;-61
2023/07/04 02:33:35;;;;;;;19.95;4.50;;;;;;;14.06;82.88;101050.03;5024687;28;20108;-61
2023/07/04 02:36:01;;;;;;;15.30;5.25;;;;;;;14.02;83.72;101046.09;5019841;28;20033;-61
2023/07/04 02:38:27;;;;;;;17.63;4.55;;;;;;;13.96;84.19;101050.34;5021705;28;20022;-61
2023/07/04 02:40:52;;;;;;;20.75;5.85;;;;;;;13.93;84.64;101056.88;5026159;28;20091;-62
2023/07/04 02:43:18;;;;;;;17.63;5.85;;;;;;;13.86;85.54;101050.63;5022135;28;20025;-61
2023/07/04 02:45:44;;;;;;;18.38;6.18;;;;;;;13.81;86.04;101049.53;5026778;28;20028;-61
2023/07/04 02:48:10;;;;;;;21.38;6.18;;;;;;;13.76;87.13;101039.41;5024599;28;20069;-61
2023/07/04 02:50:35;;;;;;;19.23;6.03;;;;;;;13.73;87.73;101047.78;5020238;28;20487;-62
2023/07/04 02:53:01;;;;;;;20.70;6.13;;;;;;;13.74;88.26;101045.94;5017736;28;20021;-61
2023/07/04 02:55:27;;;;;;;22.65;6.78;;;;;;;13.75;88.89;101031.59;5017401;28;20521;-61
2023/07/04 02:57:52;;;;;;;21.38;5.97;;;;;;;13.73;89.66;101037.13;5023509;28;20030;-61
2023/07/04 03:00:17;;;;;;;22.48;5.72;;;;;;;13.72;90.02;101032.78;5024850;28;20029;-61
2023/07/04 03:02:43;;;;;;;18.65;5.35;;;;;;;13.69;90.08;101035.00;5025143;28;20025;-62
2023/07/04 03:05:08;;;;;;;21.27;5.05;;;;;;;13.62;89.93;101040.28;5026330;28;20033;-61
2023/07/04 03:07:34;;;;;;;21.80;5.35;;;;;;;13.62;90.16;101040.28;5019694;28;20401;-60
2023/07/04 03:09:59;;;;;;;21.90;5.63;;;;;;;13.58;90.28;101037.13;5021604;28;20020;-60
2023/07/04 03:12:25;;;;;;;22.17;5.55;;;;;;;13.58;90.39;101046.97;5022007;28;20515;-61
2023/07/04 03:14:50;;;;;;;25.23;6.07;;;;;;;13.55;90.44;101037.50;5020318;28;20564;-60
2023/07/04 03:17:15;;;;;;;23.20;5.63;;;;;;;13.56;90.49;101043.66;5026282;28;20033;-61
2023/07/04 03:19:40;;;;;;;24.58;6.45;;;;;;;13.55;91.17;101048.16;5022744;28;20021;-61
2023/07/04 03:22:06;;;;;;;20.77;5.68;;;;;;;13.55;91.04;101044.66;5015453;28;20025;-61
2023/07/04 03:24:31;;;;;;;22.77;5.40;;;;;;;13.54;91.10;101035.00;5027992;28;20035;-61
2023/07/04 03:26:56;;;;;;;22.67;5.70;;;;;;;13.52;91.38;101045.03;5018025;28;20142;-60
2023/07/04 03:29:22;;;;;;;23.80;6.10;;;;;;;13.48;91.65;101047.25;5015939;28;20032;-62
2023/07/04 03:31:47;;;;;;;22.15;5.97;;;;;;;13.45;92.07;101041.47;5023689;28;20033;-61
2023/07/04 03:34:13;;;;;;;23.27;6.45;;;;;;;13.38;92.25;101041.38;5025390;28;20029;-61
2023/07/04 03:36:38;;;;;;;24.20;5.60;;;;;;;13.43;92.35;101054.16;5021226;28;20442;-60
2023/07/04 03:39:03;;;;;;;24.40;5.88;;;;;;;13.40;92.55;101057.19;5021590;28;20025;-61
2023/07/04 03:41:29;;;;;;;25.05;6.40;;;;;;;13.39;92.73;101052.88;5023845;28;20128;-61
2023/07/04 03:43:54;;;;;;;18.45;5.38;;;;;;;13.35;92.86;101052.41;5022644;28;20403;-60
2023/07/04 03:46:19;;;;;;;24.38;5.63;;;;;;;13.32;93.23;101061.63;5024531;28;20033;-61
2023/07/04 03:48:45;;;;;;;26.42;6.65;;;;;;;13.30;93.58;101052.97;5023039;28;20509;-62
2023/07/04 03:51:10;;;;;;;22.20;6.25;;;;;;;13.28;93.53;101062.97;5022884;28;20061;-61
2023/07/04 03:53:37;;;;;;;23.83;5.90;;;;;;;13.28;93.39;101056.81;5027656;28;20025;-61
2023/07/04 03:56:04;;;;;;;21.08;5.88;;;;;;;13.27;93.76;101055.97;5020627;28;20607;-61
2023/07/04 03:58:29;;;;;;;21.45;6.38;;;;;;;13.27;93.78;101055.97;5026706;28;20104;-61
2023/07/04 04:00:55;;;;;;;22.27;5.55;;;;;;;13.28;94.00;101056.81;5022687;28;20101;-61
2023/07/04 04:03:21;;;;;;;24.30;6.10;;;;;;;13.28;94.15;101075.47;5027119;28;20390;-62
2023/07/04 04:05:46;;;;;;;24.73;6.65;;;;;;;13.27;93.78;101061.31;5021433;28;20480;-61
2023/07/04 04:08:12;;;;;;;22.80;6.45;;;;;;;13.27;94.12;101058.66;5023852;28;20065;-59
2023/07/04 04:10:37;;;;;;;20.27;5.75;;;;;;;13.28;93.86;101054.97;5022838;28;20057;-61
2023/07/04 04:13:03;;;;;;;27.90;6.75;;;;;;;13.27;94.19;101058.66;5024359;28;20036;-62
2023/07/04 04:15:28;;;;;;;24.27;6.30;;;;;;;13.26;94.18;101065.00;5023925;28;20034;-61
2023/07/04 04:17:56;;;;;;;22.20;6.40;;;;;;;13.27;94.27;101071.97;5026227;28;20026;-61
2023/07/04 04:20:22;;;;;;;26.63;6.47;;;;;;;13.28;94.32;101070.13;5022069;28;20030;-61
2023/07/04 04:22:48;;;;;;;23.35;6.72;;;;;;;13.30;93.87;101070.81;5023432;28;20379;-61
2023/07/04 04:25:15;;;;;;;23.08;6.63;;;;;;;13.30;94.11;101055.66;5022339;28;20041;-61
2023/07/04 04:27:41;;;;;;;20.65;6.03;;;;;;;13.30;93.97;101066.31;5025606;28;20100;-62
2023/07/04 04:30:09;;;;;;;19.38;6.05;;;;;;;13.29;94.16;101072.63;5019354;28;20506;-62
2023/07/04 04:32:35;;;;;;;24.17;6.38;;;;;;;13.32;94.45;101066.13;5025636;28;20052;-61
2023/07/04 04:35:02;;;;;;;28.55;6.97;;;;;;;13.32;94.52;101072.28;5022469;28;20025;-62
2023/07/04 04:37:27;;;;;;;29.48;7.07;;;;;;;13.33;94.35;101081.94;5022871;28;20087;-61
2023/07/04 04:39:52;;;;;;;26.77;6.32;;;;;;;13.34;94.48;101074.78;5026348;28;20037;-61
2023/07/04 04:42:17;;;;;;;29.92;7.03;;;;;;;13.35;94.45;101081.75;5024197;28;20029;-61
2023/07/04 04:44:43;;;;;;;28.70;6.93;;;;;;;13.38;94.94;101083.25;5025354;28;20028;-61
2023/07/04 04:47:08;;;;;;;25.42;7.20;;;;;;;13.40;94.52;101086.53;5025314;28;20075;-61
2023/07/04 04:49:33;;;;;;;27.13;7.10;;;;;;;13.41;94.83;101089.03;5026072;28;20022;-61
2023/07/04 04:51:59;;;;;;;23.15;6.80;;;;;;;13.43;95.01;101088.84;5026599;28;20017;-62
2023/07/04 04:54:25;;;;;;;30.85;7.28;;;;;;;13.47;95.27;101092.81;5027978;28;20480;-61
2023/07/04 04:56:51;;;;;;;20.58;6.55;;;;;;;13.50;95.44;101089.75;5027753;28;20085;-61
2023/07/04 04:59:16;;;;;;;28.50;7.65;;;;;;;13.56;95.52;101091.69;5027888;28;20045;-62
2023/07/04 05:01:41;;;;;;;31.30;8.32;;;;;;;13.59;95.45;101099.34;5022546;28;20018;-62
2023/07/04 05:04:07;;;;;;;27.80;7.50;;;;;;;13.62;95.19;101085.63;5025493;28;20053;-61
2023/07/04 05:06:32;;;;;;;25.73;7.32;;;;;;;13.66;95.48;101086.94;5028109;28;20498;-61
2023/07/04 05:08:57;;;;;;;29.92;7.50;;;;;;;13.72;95.57;101085.34;5023871;28;20053;-61
2023/07/04 05:11:23;;;;;;;26.77;6.82;;;;;;;13.75;95.52;101085.81;5024569;28;20064;-61
2023/07/04 05:13:50;;;;;;;27.88;7.68;;;;;;;13.81;95.29;101087.72;5021599;28;20021;-60
2023/07/04 05:16:18;;;;;;;22.50;6.50;;;;;;;13.85;95.45;101093.53;5023300;28;20059;-61
2023/07/04 05:18:43;;;;;;;33.28;7.28;;;;;;;13.90;94.92;101093.81;5019578;28;20024;-61
2023/07/04 05:21:14;;;;;;;33.25;7.90;;;;;;;13.93;95.09;101096.94;5022247;28;20100;-61
2023/07/04 05:23:42;;;;;;;34.22;7.93;;;;;;;13.97;95.03;101093.88;5020029;28;20534;-61
2023/07/04 05:26:17;;;;;;;31.45;7.45;;;;;;;14.01;94.88;101101.34;5027178;28;20521;-61
2023/07/04 05:28:43;;;;;;;26.27;6.95;;;;;;;14.04;94.94;101105.47;5019730;28;20018;-62
2023/07/04 05:31:13;;;;;;;31.70;7.65;;;;;;;14.09;94.57;101103.91;5025401;28;20088;-60
2023/07/04 05:33:39;;;;;;;28.95;7.30;;;;;;;14.13;95.02;101107.00;5018997;28;20017;-62
2023/07/04 05:36:10;;;;;;;28.55;7.03;;;;;;;14.17;94.58;101101.13;5024722;28;20634;-62
2023/07/04 05:38:36;;;;;;;25.35;6.68;;;;;;;14.19;94.10;101104.44;5019232;28;20112;-61
2023/07/04 05:41:06;;;;;;;27.48;7.50;;;;;;;14.25;94.03;101108.22;5024286;28;20033;-61
2023/07/04 05:43:31;;;;;;;;;;;;;;;14.29;94.13;101111.31;5017667;28;20037;-61
2023/07/04 05:45:56;;;;;;;28.13;6.88;;;;;;;14.33;94.05;101112.59;5017723;28;19913;-62
2023/07/04 05:48:21;;;;;;;33.20;6.40;;;;;;;14.33;93.91;101110.75;5020721;28;20680;-61
2023/07/04 05:50:55;;;;;;;27.27;6.78;;;;;;;14.39;93.41;101114.50;5025389;28;20030;-61
2023/07/04 05:53:25;;;;;;;21.75;6.40;;;;;;;14.44;93.37;101112.13;5022819;28;20118;-62
2023/07/04 05:55:51;;;;;;;27.17;6.90;;;;;;;14.48;93.45;101116.94;5026337;28;20029;-62
2023/07/04 05:58:18;;;;;;;26.42;6.63;;;;;;;14.52;93.19;101112.03;5028737;28;20032;-61
2023/07/04 06:00:44;;;;;;;26.77;6.45;;;;;;;14.55;92.48;101112.47;5018423;28;20083;-61
2023/07/04 06:03:10;;;;;;;27.88;6.50;;;;;;;14.56;92.26;101122.16;5027001;28;20030;-61
2023/07/04 06:05:41;;;;;;;28.30;6.78;;;;;;;14.58;92.09;101121.97;5028451;28;20105;-61
2023/07/04 06:08:07;;;;;;;26.25;6.20;;;;;;;14.62;92.04;101119.72;5024626;28;20017;-61
2023/07/04 06:10:33;;;;;;;30.70;6.63;;;;;;;14.65;91.61;101124.69;5022302;28;20162;-61
2023/07/04 06:12:58;;;;;;;24.40;6.03;;;;;;;14.66;91.34;101129.03;5024205;28;20086;-61
2023/07/04 06:15:23;;;;;;;23.15;6.13;;;;;;;14.71;91.06;101135.44;5015353;28;20098;-62
2023/07/04 06:17:49;;;;;;;28.27;6.68;;;;;;;14.71;91.00;101127.44;5024005;28;20021;-61
2023/07/04 06:20:14;;;;;;;23.08;6.15;;;;;;;14.79;90.72;101126.50;5027922;28;20021;-60
2023/07/04 06:22:39;;;;;;;27.60;6.30;;;;;;;14.83;90.09;101127.75;5021674;28;20445;-60
2023/07/04 06:25:06;;;;;;;22.95;6.57;;;;;;;14.90;89.83;101139.34;5026794;28;20187;-61
2023/07/04 06:27:32;;;;;;;26.42;6.03;;;;;;;14.98;90.29;101141.06;5029040;28;20044;-61
2023/07/04 06:29:57;;;;;;;24.35;5.95;;;;;;;15.04;89.58;101138.47;5019355;28;20079;-61
2023/07/04 06:32:23;;;;;;;28.05;5.50;;;;;;;15.08;89.20;101150.44;5023977;28;20022;-62
2023/07/04 06:34:48;;;;;;;20.77;5.32;;;;;;;15.12;88.11;101153.53;5016888;28;20034;-62
2023/07/04 06:37:13;;;;;;;21.60;5.22;;;;;;;15.13;87.65;101144.50;5021598;28;20025;-61
2023/07/04 06:39:38;;;;;;;24.88;4.93;;;;;;;15.17;87.65;101154.59;5027231;28;20079;-62
2023/07/04 06:42:04;;;;;;;22.17;4.75;;;;;;;15.24;86.95;101148.47;5024214;28;20028;-61
2023/07/04 06:44:29;;;;;;;21.60;5.28;;;;;;;15.26;86.43;101143.75;5018646;28;20037;-62
2023/07/04 06:46:54;;;;;;;23.92;5.30;;;;;;;15.44;86.01;101147.63;5025052;28;20022;-62
2023/07/04 06:49:20;;;;;;;23.17;4.88;;;;;;;15.53;86.59;101150.97;5026048;28;20419;-61
2023/07/04 06:51:45;;;;;;;22.25;5.15;;;;;;;15.60;85.50;101153.72;5025023;28;20097;-62
2023/07/04 06:54:10;;;;;;;16.77;4.70;;;;;;;15.57;83.96;101162.09;5023585;28;20111;-62
2023/07/04 06:56:37;;;;;;;18.40;5.00;;;;;;;15.50;83.15;101148.69;5027679;28;20033;-62
2023/07/04 06:59:03;;;;;;;21.50;5.63;;;;;;;15.50;82.06;101164.75;5024027;28;20451;-62
2023/07/04 07:01:29;;;;;;;17.52;4.93;;;;;;;15.52;82.39;101162.69;5026692;28;20033;-61
2023/07/04 07:03:55;;;;;;;26.05;5.60;;;;;;;15.56;82.60;101166.63;5025253;28;20174;-61
2023/07/04 07:06:21;;;;;;;19.75;5.32;;;;;;;15.58;82.80;101169.13;5027159;28;20471;-62
2023/07/04 07:08:47;;;;;;;21.25;5.32;;;;;;;15.58;82.82;101172.66;5021110;28;20028;-61
2023/07/04 07:11:15;;;;;;;24.55;5.97;;;;;;;15.59;82.42;101163.59;5022461;28;20025;-60
2023/07/04 07:13:41;;;;;;;19.23;5.37;;;;;;;15.67;82.49;101163.47;5022303;28;20105;-61
2023/07/04 07:16:17;;;;;;;25.70;6.10;;;;;;;15.70;81.45;101164.91;5021823;28;20025;-62
2023/07/04 07:18:44;;;;;;;17.17;4.88;;;;;;;15.65;80.83;101165.50;5021122;28;20029;-61
2023/07/04 07:21:11;;;;;;;20.13;5.18;;;;;;;15.61;81.02;101183.00;5026053;28;20037;-62
2023/07/04 07:23:37;;;;;;;13.70;4.72;;;;;;;15.59;80.08;101193.03;5023110;28;20457;-62
2023/07/04 07:26:05;;;;;;;21.08;5.80;;;;;;;15.69;80.09;101192.72;5020003;28;20037;-61
2023/07/04 07:28:32;;;;;;;20.27;4.88;;;;;;;15.81;80.54;101191.16;5016136;28;20076;-62
2023/07/04 07:31:09;;;;;;;20.20;5.38;;;;;;;15.95;79.75;101182.19;5027335;28;20033;-62
2023/07/04 07:33:36;;;;;;;20.38;4.75;;;;;;;16.01;79.09;101185.91;5026494;28;20053;-62
2023/07/04 07:36:31;;;;;;;21.02;4.85;;;;;;;16.04;78.81;101183.66;5021743;28;20029;-62
2023/07/04 07:38:58;;;;;;;19.17;3.70;;;;;;;15.95;76.85;101176.81;5018163;28;20037;-61
2023/07/04 07:41:29;;;;;;;14.25;4.25;;;;;;;15.90;75.67;101186.44;5025170;28;20109;-62
2023/07/04 07:43:54;;;;;;;14.82;4.13;;;;;;;15.90;75.82;101200.69;5027671;28;20029;-62
2023/07/04 07:46:20;;;;;;;13.98;3.08;;;;;;;15.88;74.35;101196.53;5016399;28;20072;-61
2023/07/04 07:48:46;;;;;;;14.77;3.63;;;;;;;15.92;73.22;101200.50;5026886;28;20375;-61
2023/07/04 07:51:12;;;;;;;13.32;3.00;;;;;;;16.00;72.83;101201.16;5024374;28;20734;-64
2023/07/04 07:53:40;;;;;;;12.35;2.70;;;;;;;16.09;72.21;101212.53;5026196;28;20057;-65
2023/07/04 07:56:07;;;;;;;10.70;2.88;;;;;;;16.21;71.92;101207.47;5023195;28;20018;-63
2023/07/04 07:58:34;;;;;;;12.38;3.10;;;;;;;16.33;70.69;101195.97;5026986;28;20037;-64
2023/07/04 08:00:59;;;;;;;11.63;3.20;;;;;;;16.37;69.44;101209.78;5025622;28;20458;-64
2023/07/04 08:03:27;;;;;;;10.25;2.92;;;;;;;16.38;69.54;101212.28;5024131;28;20108;-64
2023/07/04 08:05:52;;;;;;;16.10;3.78;;;;;;;16.48;69.89;101192.31;5015602;28;20038;-64
2023/07/04 08:08:17;;;;;;;14.07;3.00;;;;;;;16.59;69.23;101202.47;5024238;28;20448;-63
2023/07/04 08:10:43;;;;;;;10.90;3.03;;;;;;;16.68;69.68;101199.44;5017628;28;20729;-65
2023/07/04 08:13:10;;;;;;;14.82;3.10;;;;;;;16.81;68.71;101205.88;5027184;28;20061;-64
2023/07/04 08:15:36;;;;;;;11.75;2.97;;;;;;;16.95;68.92;101205.69;5021386;28;20078;-63
2023/07/04 08:18:09;;;;;;;10.80;3.00;;;;;;;17.01;67.92;101198.66;5026106;28;20041;-64
2023/07/04 08:20:34;;;;;;;12.95;3.47;;;;;;;17.04;66.73;101206.31;5016586;28;20037;-63
2023/07/04 08:23:00;;;;;;;13.15;2.75;;;;;;;17.12;66.04;101216.06;5016859;28;20041;-64
2023/07/04 08:25:25;;;;;;;14.55;3.05;;;;;;;17.21;65.55;101217.50;5017089;28;20030;-64
2023/07/04 08:27:52;;;;;;;13.07;2.90;;;;;;;17.27;64.59;101222.88;5022069;28;20025;-64
2023/07/04 08:30:17;;;;;;;8.73;2.60;;;;;;;17.26;64.00;101218.53;5020764;28;20469;-63
2023/07/04 08:32:42;;;;;;;12.32;2.85;;;;;;;17.15;63.00;101210.28;5022718;28;20044;-62
2023/07/04 08:35:08;;;;;;;13.32;2.80;;;;;;;17.10;62.49;101193.97;5021150;28;20033;-60
2023/07/04 08:37:33;;;;;;;9.60;2.50;;;;;;;17.09;62.57;101201.19;5022075;28;20048;-62
2023/07/04 08:39:58;;;;;;;11.35;2.72;;;;;;;17.10;62.57;101202.00;5019602;28;20438;-62
2023/07/04 08:42:26;;;;;;;11.65;2.95;;;;;;;17.13;62.35;101196.22;5026188;28;20096;-62
2023/07/04 08:44:52;;;;;;;8.23;2.60;;;;;;;17.22;62.53;101186.94;5026245;28;20079;-61
2023/07/04 08:47:25;;;;;;;11.05;2.63;;;;;;;17.34;61.07;101190.66;5028778;28;20025;-62
2023/07/04 08:50:00;;;;;;;11.25;2.72;;;;;;;17.57;62.08;101196.44;5025010;28;20037;-60
2023/07/04 08:52:38;;;;;;;6.97;2.13;;;;;;;17.62;61.18;101211.91;5026635;28;20026;-61
2023/07/04 08:55:14;;;;;;;14.93;3.03;;;;;;;17.67;61.31;101211.31;5022018;28;20077;-62
2023/07/04 08:57:59;;;;;;;13.73;2.58;;;;;;;17.77;61.49;101209.06;5026292;28;20025;-61
2023/07/04 09:00:35;;;;;;;8.98;2.63;;;;;;;17.79;60.23;101226.63;5026929;28;20036;-61
2023/07/04 09:03:38;;;;;;;8.40;2.78;;;;;;;17.65;58.88;101217.72;5021606;28;20044;-62
2023/07/04 09:06:10;;;;;;;10.98;2.45;;;;;;;17.59;58.81;101233.81;5022571;28;20030;-62
2023/07/04 09:09:05;;;;;;;10.27;2.83;;;;;;;17.53;58.33;101226.59;5024824;28;20021;-62
2023/07/04 09:11:31;;;;;;;16.33;2.80;;;;;;;17.59;58.94;101231.13;5020245;28;20454;-62
2023/07/04 09:14:14;;;;;;;12.20;2.78;;;;;;;17.67;58.73;101259.66;5025420;28;20028;-61
2023/07/04 09:16:43;;;;;;;8.73;2.70;;;;;;;17.71;58.37;101244.81;5024090;28;20479;-61
2023/07/04 09:19:10;;;;;;;10.05;2.78;;;;;;;17.68;58.16;101234.50;5028188;28;20033;-61
2023/07/04 09:21:36;;;;;;;13.98;2.85;;;;;;;17.74;57.55;101239.03;5027196;28;20112;-61
2023/07/04 09:24:03;;;;;;;7.63;2.60;;;;;;;18.04;57.92;101256.34;5027206;28;20025;-62
2023/07/04 09:26:53;;;;;;;14.07;2.75;;;;;;;18.35;57.12;101249.44;5023318;28;20037;-62
2023/07/04 09:29:22;;;;;;;8.48;2.20;;;;;;;18.66;56.95;101244.19;5012797;28;20041;-62
2023/07/04 09:31:53;;;;;;;7.95;2.15;;;;;;;18.69;54.83;101265.28;5027894;28;20033;-62
2023/07/04 09:34:41;;;;;;;11.02;2.47;;;;;;;18.73;54.81;101250.34;5025244;28;20033;-62
2023/07/04 09:37:14;;;;;;;8.23;2.63;;;;;;;18.65;54.66;101261.38;5028198;28;20018;-62
2023/07/04 09:39:57;;;;;;;7.60;2.20;;;;;;;18.57;53.91;101262.41;5025734;28;20049;-62
2023/07/04 09:42:40;;;;;;;13.13;2.75;;;;;;;18.58;54.37;101258.69;5023926;28;20026;-62
2023/07/04 09:45:09;;;;;;;10.23;2.72;;;;;;;18.63;54.20;101259.94;5025967;28;20637;-64
2023/07/04 09:47:34;;;;;;;7.80;2.33;;;;;;;18.71;53.90;101244.38;5026733;28;20048;-62
2023/07/04 09:50:15;;;;;;;9.75;1.95;;;;;;;18.86;53.40;101250.31;5027319;28;20398;-62
2023/07/04 09:52:41;;;;;;;8.60;2.50;;;;;;;19.02;52.77;101246.28;5021857;28;20017;-62
2023/07/04 09:55:24;;;;;;;9.57;2.33;;;;;;;19.06;52.09;101249.34;5027596;28;20479;-62
2023/07/04 09:57:49;;;;;;;9.32;2.55;;;;;;;19.15;52.03;101254.28;5022977;28;20040;-61
2023/07/04 10:00:19;;;;;;;7.55;2.28;;;;;;;19.16;51.27;101255.94;5026090;28;20391;-62
2023/07/04 10:02:46;;;;;;;6.78;2.20;;;;;;;19.08;51.26;101263.41;5023654;28;20029;-62
2023/07/04 10:05:24;;;;;;;8.88;2.20;;;;;;;19.18;51.02;101261.94;5028243;28;20025;-62
2023/07/04 10:08:00;;;;;;;10.10;2.25;;;;;;;19.26;51.87;101260.00;5025103;28;20029;-62
2023/07/04 10:10:26;;;;;;;10.52;2.83;;;;;;;19.39;51.92;101243.78;5022723;28;20533;-62
2023/07/04 10:12:51;;;;;;;9.57;3.00;;;;;;;19.55;51.58;101267.50;5028387;28;20028;-63
2023/07/04 10:15:24;;;;;;;8.82;3.10;;;;;;;19.47;51.28;101251.56;5020139;28;20029;-63
2023/07/04 10:17:50;;;;;;;7.60;2.42;;;;;;;19.42;50.96;101241.47;5019722;28;20103;-62
2023/07/04 10:20:15;;;;;;;9.30;2.78;;;;;;;19.59;50.22;101257.09;5023917;28;20510;-63
2023/07/04 10:22:47;;;;;;;8.27;2.50;;;;;;;19.77;50.97;101246.38;5017683;28;20108;-62
2023/07/04 10:25:17;;;;;;;8.98;2.70;;;;;;;20.01;51.15;101261.72;5025374;28;20033;-61
2023/07/04 10:27:47;;;;;;;6.10;2.50;;;;;;;19.99;50.04;101252.19;5023918;28;20087;-63
2023/07/04 10:30:16;;;;;;;9.32;2.63;;;;;;;19.82;50.03;101254.63;5018705;28;22002;-62
2023/07/04 10:32:47;;;;;;;8.75;2.50;;;;;;;19.56;49.69;101279.91;5023753;28;20033;-64
2023/07/04 10:35:18;;;;;;;10.30;2.70;;;;;;;19.45;50.43;101265.25;5019469;28;20029;-62
2023/07/04 10:37:47;;;;;;;13.45;2.72;;;;;;;19.55;50.33;101266.66;5017722;28;20499;-63
2023/07/04 10:40:14;;;;;;;10.30;2.90;;;;;;;19.71;50.46;101266.97;5025379;28;20380;-62
2023/07/04 10:42:48;;;;;;;12.85;2.63;;;;;;;19.80;49.52;101259.41;5021064;28;20104;-63
2023/07/04 10:45:15;;;;;;;11.15;2.53;;;;;;;19.82;49.20;101270.78;5020434;28;20112;-63
2023/07/04 10:47:41;;;;;;;5.63;1.88;;;;;;;19.76;48.96;101269.81;5019865;28;20022;-61
2023/07/04 10:50:36;;;;;;;7.32;2.30;;;;;;;19.66;48.94;101272.19;5023614;28;20025;-63
2023/07/04 10:53:01;;;;;;;7.25;2.17;;;;;;;19.75;49.00;101261.94;5020897;28;20041;-63
2023/07/04 10:55:38;;;;;;;6.15;2.10;;;;;;;20.01;48.60;101275.19;5022993;28;20041;-62
2023/07/04 10:58:16;;;;;;;6.90;2.30;;;;;;;20.02;47.73;101257.97;5025682;28;20502;-63
2023/07/04 11:00:50;;;;;;;7.38;2.30;;;;;;;19.90;47.90;101257.03;5024947;28;20040;-63
2023/07/04 11:03:24;;;;;;;6.55;2.25;;;;;;;19.85;47.84;101273.03;5022339;28;20032;-63
2023/07/04 11:05:54;;;;;;;7.60;2.58;;;;;;;19.68;47.35;101259.31;5025961;28;20045;-63
2023/07/04 11:08:22;;;;;;;6.22;1.90;;;;;;;19.52;47.70;101273.28;5019064;28;20030;-62
2023/07/04 11:10:51;;;;;;;10.35;2.65;;;;;;;19.45;47.77;101267.13;5018879;28;20104;-62
2023/07/04 11:13:19;;;;;;;8.55;2.67;;;;;;;19.64;48.33;101268.03;5024117;28;20030;-62
2023/07/04 11:15:53;;;;;;;10.80;2.50;;;;;;;19.83;48.42;101258.97;5025809;28;20491;-63
2023/07/04 11:18:25;;;;;;;7.18;2.10;;;;;;;19.86;47.90;101261.22;5021639;28;20033;-63
2023/07/04 11:20:53;;;;;;;5.93;2.35;;;;;;;19.74;47.91;101257.59;5020537;28;20049;-63
2023/07/04 11:23:22;;;;;;;6.93;2.50;;;;;;;19.78;48.41;101262.31;5028399;28;20035;-63
2023/07/04 11:26:04;;;;;;;8.17;2.30;;;;;;;19.90;48.80;101257.03;5023138;28;20029;-63
2023/07/04 11:28:35;;;;;;;7.28;2.15;;;;;;;19.94;49.10;101252.00;5020516;28;20339;-62
2023/07/04 11:31:23;;;;;;;9.48;2.50;;;;;;;20.03;48.84;101259.63;5022472;28;20021;-62
2023/07/04 11:33:49;;;;;;;7.30;2.45;;;;;;;19.95;48.14;101259.06;5019310;28;20029;-63
2023/07/04 11:36:28;;;;;;;10.00;2.17;;;;;;;19.87;48.15;101260.16;5021673;28;20414;-63
2023/07/04 11:38:57;;;;;;;8.73;2.50;;;;;;;19.88;48.10;101259.13;5023250;28;20022;-63
2023/07/04 11:41:30;;;;;;;6.38;2.00;;;;;;;19.88;48.75;101256.44;5019591;28;20480;-61
2023/07/04 11:43:56;;;;;;;7.60;2.40;;;;;;;19.94;48.43;101266.31;5018871;28;20029;-61
2023/07/04 11:46:26;;;;;;;12.05;2.75;;;;;;;20.08;48.87;101257.06;5024386;28;20017;-63
2023/07/04 11:48:54;;;;;;;8.13;2.42;;;;;;;20.03;48.29;101275.78;5024687;28;20051;-63
2023/07/04 11:51:22;;;;;;;12.43;2.72;;;;;;;19.86;48.05;101277.38;5022827;28;20024;-63
2023/07/04 11:53:57;;;;;;;7.68;2.40;;;;;;;19.73;47.87;101266.75;5018980;28;20021;-62
2023/07/04 11:56:23;;;;;;;8.32;2.60;;;;;;;19.62;48.24;101270.13;5021739;28;20025;-63
2023/07/04 11:59:11;;;;;;;8.00;2.67;;;;;;;19.49;48.60;101266.47;5023521;28;20039;-63
2023/07/04 12:01:51;;;;;;;6.45;2.25;;;;;;;19.53;49.08;101269.59;5023774;28;20468;-63